Reliance, Wyoming
Current Conditions -  °F | °C
As of 6:54 PM on Monday 24 Nov 2014 (Local Time) from KRKS Reporting Station
Clear Clear  
Wind Chill:   Ceiling: Unl
Heat Index: 22°   Visibility: 10mi
Dew Point: 10°   Wind: 15mph
Humidity: 60%   Direction: 250°WSW
Pressure: 30.26"   Gusts: NA
Location:  41.67°N, 109.2°W
Report Text: KRKS 250154Z AUTO 25013KT 10SM CLR M06/M12 A3026 RMK AO2 SLP298 T10561122
Loading
Personal Weather Stations






























Interactive Weather Map New forecast layout! Learn more

10-Day Weather Forecast

Advertisements
Track Severe Weather on mobile